Time;durP1;ratioP1;P1;durP2;ratioP2;P2;SDS_P1;SDS_P2;PMS_P1;PMS_P2;Temp;Humidity;BMP_temperature;BMP_pressure;BME280_temperature;BME280_humidity;BME280_pressure;Samples;Min_cycle;Max_cycle;Signal;HPM_P1;HPM_P2
2022/06/25 00:01:15;;;;;;;3.80;3.50;;;;;;;20.37;73.56;100203.00;5002971;28;20225;-79
2022/06/25 00:03:42;;;;;;;4.70;3.47;;;;;;;20.36;74.04;100198.59;4988852;28;20748;-79
2022/06/25 00:06:10;;;;;;;3.83;3.53;;;;;;;20.38;74.62;100206.53;4988501;28;20215;-77
2022/06/25 00:08:38;;;;;;;4.60;3.90;;;;;;;20.39;74.86;100205.53;4991161;28;20293;-79
2022/06/25 00:11:05;;;;;;;4.80;4.33;;;;;;;20.40;75.21;100209.91;4986555;28;20209;-78
2022/06/25 00:13:32;;;;;;;5.67;4.53;;;;;;;20.42;75.48;100211.41;4986405;28;20234;-79
2022/06/25 00:15:59;;;;;;;5.40;4.80;;;;;;;20.45;75.50;100221.88;4987010;28;20207;-79
2022/06/25 00:18:26;;;;;;;6.60;5.17;;;;;;;20.45;75.57;100231.88;4997175;28;20568;-79
2022/06/25 00:20:53;;;;;;;7.20;5.13;;;;;;;20.41;75.31;100222.44;4996539;28;20206;-80
2022/06/25 00:23:21;;;;;;;7.23;5.90;;;;;;;20.35;75.14;100228.47;4988905;28;20216;-79
2022/06/25 00:25:47;;;;;;;5.63;5.17;;;;;;;20.24;75.06;100220.72;4990850;28;20207;-80
2022/06/25 00:28:14;;;;;;;5.83;5.33;;;;;;;20.16;75.77;100226.97;4988937;28;20769;-78
2022/06/25 00:30:40;;;;;;;6.83;5.70;;;;;;;20.11;76.26;100240.97;4992440;28;20207;-79
2022/06/25 00:33:07;;;;;;;8.90;5.47;;;;;;;20.10;76.76;100236.59;4992256;28;20215;-79
2022/06/25 00:35:33;;;;;;;5.90;4.90;;;;;;;20.10;77.08;100233.88;4984248;28;20214;-79
2022/06/25 00:38:00;;;;;;;6.70;5.53;;;;;;;20.13;77.70;100232.69;4984958;28;20575;-79
2022/06/25 00:40:28;;;;;;;5.77;5.10;;;;;;;20.16;77.83;100226.97;4991047;28;20206;-79
2022/06/25 00:42:54;;;;;;;5.97;5.07;;;;;;;20.17;77.61;100233.22;4999174;28;20206;-79
2022/06/25 00:45:21;;;;;;;6.27;5.53;;;;;;;20.16;77.43;100231.53;4998022;28;20245;-79
2022/06/25 00:47:47;;;;;;;5.70;5.30;;;;;;;20.11;77.45;100234.72;5000441;28;20605;-78
2022/06/25 00:50:14;;;;;;;5.87;5.37;;;;;;;20.06;77.27;100235.22;5000382;28;20202;-79
2022/06/25 00:52:42;;;;;;;6.47;5.53;;;;;;;20.03;77.18;100234.75;5001935;28;20649;-79
2022/06/25 00:55:11;;;;;;;6.07;5.47;;;;;;;19.96;77.18;100231.84;5006773;28;20227;-80
2022/06/25 00:57:42;;;;;;;6.20;4.97;;;;;;;19.93;77.13;100220.53;5004978;28;20751;-80
2022/06/25 01:00:12;;;;;;;7.57;5.17;;;;;;;19.89;77.47;100224.56;5003092;28;20202;-79
2022/06/25 01:02:40;;;;;;;5.60;5.00;;;;;;;19.89;77.77;100224.56;4999759;28;20214;-79
2022/06/25 01:05:09;;;;;;;6.13;5.63;;;;;;;19.87;77.64;100224.75;4998944;28;20238;-79
2022/06/25 01:07:36;;;;;;;6.70;6.10;;;;;;;19.84;78.05;100233.19;5000378;28;20237;-79
2022/06/25 01:10:03;;;;;;;6.30;5.50;;;;;;;19.83;78.08;100231.50;4997399;28;20551;-79
2022/06/25 01:12:30;;;;;;;5.93;5.33;;;;;;;19.81;77.94;100230.81;4999137;28;20205;-80
2022/06/25 01:15:07;;;;;;;6.87;5.27;;;;;;;19.79;77.85;100232.00;4999092;28;20695;-79
2022/06/25 01:17:36;;;;;;;7.50;5.20;;;;;;;19.73;77.20;100230.78;4997918;28;20205;-79
2022/06/25 01:20:04;;;;;;;9.67;5.10;;;;;;;19.66;76.99;100236.03;5001894;28;20277;-80
2022/06/25 01:22:33;;;;;;;7.67;5.27;;;;;;;19.58;76.56;100232.44;4992448;28;20238;-79
2022/06/25 01:25:00;;;;;;;9.23;5.00;;;;;;;19.46;76.47;100242.69;4999326;28;20251;-79
2022/06/25 01:27:26;;;;;;;9.10;4.87;;;;;;;19.40;76.57;100251.44;4992509;28;20233;-79
2022/06/25 01:29:53;;;;;;;9.60;5.17;;;;;;;19.36;76.69;100252.78;5002242;28;20216;-78
2022/06/25 01:32:20;;;;;;;5.60;5.10;;;;;;;19.33;77.07;100248.56;5000828;28;20213;-79
2022/06/25 01:34:46;;;;;;;6.60;5.97;;;;;;;19.31;76.80;100253.28;5005096;28;20250;-79
2022/06/25 01:37:13;;;;;;;6.20;5.40;;;;;;;19.29;77.29;100255.31;5000259;28;20210;-79
2022/06/25 01:39:40;;;;;;;7.63;5.73;;;;;;;19.28;77.55;100256.31;5008060;28;20219;-79
2022/06/25 01:42:58;;;;;;;6.50;4.90;;;;;;;19.27;77.73;100260.00;4996524;28;20221;-79
2022/06/25 01:44:53;;;;;;;6.80;5.40;;;;;;;19.28;77.94;100263.56;5002113;28;20230;-78
2022/06/25 01:47:20;;;;;;;6.40;5.53;;;;;;;19.29;78.09;100262.56;4998360;28;20700;-79
2022/06/25 01:49:46;;;;;;;6.07;4.70;;;;;;;19.30;77.92;100261.53;4994193;28;20457;-79
2022/06/25 01:52:13;;;;;;;5.87;4.67;;;;;;;19.33;78.06;100263.94;4992003;28;20219;-80
2022/06/25 01:54:41;;;;;;;5.10;4.67;;;;;;;19.34;78.04;100269.16;4998969;28;20241;-79
2022/06/25 01:57:08;;;;;;;6.53;5.33;;;;;;;19.35;78.32;100261.88;4997593;28;20588;-79
2022/06/25 01:59:34;;;;;;;5.53;4.57;;;;;;;19.38;78.41;100275.06;4999155;28;20217;-79
2022/06/25 02:02:01;;;;;;;5.40;4.90;;;;;;;19.39;78.55;100269.50;4998633;28;20586;-79
2022/06/25 02:04:28;;;;;;;7.07;5.33;;;;;;;19.39;78.73;100277.59;4998503;28;20262;-79
2022/06/25 02:06:54;;;;;;;5.63;5.13;;;;;;;19.42;78.95;100271.03;4995473;28;20225;-79
2022/06/25 02:09:21;;;;;;;5.57;5.07;;;;;;;19.43;79.14;100267.31;5000572;28;20225;-78
2022/06/25 02:11:49;;;;;;;7.33;5.07;;;;;;;19.43;78.82;100262.78;4996168;28;20202;-79
2022/06/25 02:14:15;;;;;;;9.60;4.67;;;;;;;19.42;78.45;100271.88;4994207;28;20229;-79
2022/06/25 02:16:42;;;;;;;9.07;5.10;;;;;;;19.39;77.78;100274.06;4987192;28;20205;-79
2022/06/25 02:19:09;;;;;;;19.77;5.37;;;;;;;19.31;77.07;100272.19;4997758;28;20210;-79
2022/06/25 02:21:36;;;;;;;16.47;5.20;;;;;;;19.20;76.53;100269.75;4999577;28;20232;-79
2022/06/25 02:24:02;;;;;;;15.33;4.97;;;;;;;19.12;76.04;100275.13;4994567;28;20234;-79
2022/06/25 02:26:29;;;;;;;13.60;5.13;;;;;;;19.02;75.75;100277.09;4996468;28;20667;-78
2022/06/25 02:28:57;;;;;;;11.13;5.33;;;;;;;18.93;75.78;100268.13;4997848;28;20225;-79
2022/06/25 02:31:23;;;;;;;15.83;5.77;;;;;;;18.84;75.60;100279.84;5005903;28;20846;-78
2022/06/25 02:33:50;;;;;;;12.97;5.57;;;;;;;18.77;75.57;100280.66;4992371;28;20233;-79
2022/06/25 02:36:16;;;;;;;13.93;5.80;;;;;;;18.69;75.73;100290.38;4993149;28;20214;-79
2022/06/25 02:38:43;;;;;;;16.80;6.43;;;;;;;18.64;75.97;100287.31;4991775;28;20702;-78
2022/06/25 02:41:10;;;;;;;13.77;5.03;;;;;;;18.62;76.30;100289.34;4991204;28;20228;-79
2022/06/25 02:43:36;;;;;;;11.70;5.50;;;;;;;18.60;76.71;100294.03;4991037;28;20283;-79
2022/06/25 02:46:04;;;;;;;12.87;6.33;;;;;;;18.56;76.72;100291.78;4996665;28;20217;-79
2022/06/25 02:48:31;;;;;;;13.00;5.47;;;;;;;18.53;76.67;100292.94;4990868;28;20236;-79
2022/06/25 02:50:57;;;;;;;13.20;5.77;;;;;;;18.48;76.66;100292.53;4984030;28;20240;-79
2022/06/25 02:53:24;;;;;;;9.40;5.50;;;;;;;18.45;76.97;100294.72;4987885;28;20212;-79
2022/06/25 03:01:20;;;;;;;13.17;6.47;;;;;;;18.36;77.75;100296.50;4987390;28;20389;-78
2022/06/25 03:03:47;;;;;;;11.63;6.20;;;;;;;18.34;77.84;100303.88;4989373;28;20224;-78
2022/06/25 03:06:13;;;;;;;10.97;6.57;;;;;;;18.34;77.99;100310.13;4988015;28;20214;-79
2022/06/25 03:08:40;;;;;;;13.50;6.30;;;;;;;18.34;78.18;100306.59;4986979;28;20224;-78
2022/06/25 03:11:07;;;;;;;13.27;6.17;;;;;;;18.34;78.28;100312.81;4993263;28;20227;-78
2022/06/25 03:13:36;;;;;;;7.17;6.10;;;;;;;18.33;78.49;100311.13;4983362;28;20731;-79
2022/06/25 03:16:03;;;;;;;14.93;7.57;;;;;;;18.33;78.76;100307.59;4989066;28;20242;-79
2022/06/25 03:18:31;;;;;;;9.80;7.07;;;;;;;18.30;78.74;100299.81;4987498;28;20215;-79
2022/06/25 03:20:58;;;;;;;10.67;6.60;;;;;;;18.28;78.94;100308.03;4988010;28;20295;-79
2022/06/25 03:23:25;;;;;;;13.27;6.40;;;;;;;18.27;79.06;100302.84;4995523;28;20215;-79
2022/06/25 03:25:51;;;;;;;11.20;6.87;;;;;;;18.24;79.24;100300.44;4994380;28;20213;-78
2022/06/25 03:28:18;;;;;;;13.00;6.87;;;;;;;18.21;79.14;100303.44;4987053;28;20233;-78
2022/06/25 03:30:44;;;;;;;9.87;6.03;;;;;;;18.16;79.34;100303.91;4993844;28;20216;-79
2022/06/25 03:33:11;;;;;;;13.57;6.93;;;;;;;18.13;79.34;100308.75;4990650;28;20223;-78
2022/06/25 03:35:38;;;;;;;12.83;6.70;;;;;;;18.10;79.53;100317.13;4994517;28;20315;-79
2022/06/25 03:38:05;;;;;;;7.63;6.07;;;;;;;18.07;79.57;100312.91;4999380;28;20206;-79
2022/06/25 03:40:32;;;;;;;9.17;6.27;;;;;;;18.06;79.84;100313.91;4997270;28;20205;-79
2022/06/25 03:42:59;;;;;;;10.37;7.50;;;;;;;18.06;79.84;100313.06;4993424;28;20207;-79
2022/06/25 03:45:26;;;;;;;9.93;6.97;;;;;;;18.03;80.10;100316.91;4989956;28;20229;-78
2022/06/25 03:47:52;;;;;;;10.27;6.87;;;;;;;18.00;80.24;100315.38;4993314;28;20498;-80
2022/06/25 03:50:20;;;;;;;8.90;6.67;;;;;;;17.98;80.49;100316.53;4991215;28;20213;-79
2022/06/25 03:52:49;;;;;;;13.70;7.83;;;;;;;17.94;80.56;100324.06;4992563;28;20208;-78
2022/06/25 03:55:17;;;;;;;12.23;7.30;;;;;;;17.90;80.81;100319.16;4993266;28;20600;-79
2022/06/25 03:57:43;;;;;;;8.43;7.20;;;;;;;17.87;81.11;100323.00;4991016;28;20201;-79
2022/06/25 04:00:11;;;;;;;11.13;8.20;;;;;;;17.85;81.36;100318.75;5000197;28;20219;-78
2022/06/25 04:02:37;;;;;;;10.27;7.43;;;;;;;17.86;81.76;100333.91;4987369;28;20657;-79
2022/06/25 04:05:05;;;;;;;12.03;6.73;;;;;;;17.83;82.06;100321.59;4991566;28;20232;-80
2022/06/25 04:07:31;;;;;;;11.30;7.60;;;;;;;17.86;82.35;100334.75;4994730;28;20210;-79
2022/06/25 04:09:59;;;;;;;9.50;8.50;;;;;;;17.89;83.09;100331.78;5005725;28;20573;-78
2022/06/25 04:12:26;;;;;;;11.80;8.43;;;;;;;17.96;83.61;100338.22;4998224;28;20205;-78
2022/06/25 04:14:52;;;;;;;9.73;8.83;;;;;;;18.06;84.17;100348.09;4989355;28;20219;-79
2022/06/25 04:17:19;;;;;;;8.70;7.93;;;;;;;18.12;84.47;100347.47;4992499;28;20220;-78
2022/06/25 04:19:45;;;;;;;8.73;7.93;;;;;;;18.20;84.46;100344.88;5001261;28;20213;-78
2022/06/25 04:22:12;;;;;;;8.70;7.73;;;;;;;18.26;84.59;100349.66;5002347;28;20212;-79
2022/06/25 04:24:42;;;;;;;8.27;7.57;;;;;;;18.31;84.80;100353.56;4993303;28;20226;-79
2022/06/25 04:29:03;;;;;;;8.07;7.27;;;;;;;18.35;84.65;100357.66;4998553;28;20223;-78
2022/06/25 04:29:55;;;;;;;12.70;8.03;;;;;;;18.39;84.72;100369.84;4996432;28;20236;-79
2022/06/25 04:32:22;;;;;;;7.87;7.00;;;;;;;18.43;84.65;100362.28;5002474;28;20199;-78
2022/06/25 04:34:48;;;;;;;9.30;7.77;;;;;;;18.48;84.72;100368.03;5003953;28;20229;-79
2022/06/25 04:37:15;;;;;;;8.30;7.50;;;;;;;18.50;84.61;100360.66;5002362;28;20633;-78
2022/06/25 04:39:41;;;;;;;8.20;7.50;;;;;;;18.56;84.74;100364.59;5001776;28;20212;-78
2022/06/25 04:42:09;;;;;;;7.93;6.60;;;;;;;18.60;84.70;100369.56;4995652;28;20828;-79
2022/06/25 04:44:36;;;;;;;7.97;6.83;;;;;;;18.64;84.76;100376.31;4998315;28;20224;-79
2022/06/25 04:47:02;;;;;;;8.00;6.90;;;;;;;18.68;84.79;100372.31;4990774;28;20695;-79
2022/06/25 04:49:29;;;;;;;8.17;7.30;;;;;;;18.73;84.56;100378.09;4991693;28;20235;-79
2022/06/25 04:51:55;;;;;;;7.40;6.67;;;;;;;18.76;84.50;100378.78;4997744;28;20244;-79
2022/06/25 04:54:22;;;;;;;7.10;6.60;;;;;;;18.82;84.43;100383.53;4999758;28;20660;-79
2022/06/25 04:56:49;;;;;;;7.33;6.73;;;;;;;18.85;84.23;100381.38;4995870;28;20583;-79
2022/06/25 04:59:18;;;;;;;6.60;6.00;;;;;;;18.91;84.03;100388.00;5006303;28;20209;-79
2022/06/25 05:01:45;;;;;;;6.77;6.20;;;;;;;18.95;83.71;100390.25;5003941;28;20236;-80
2022/06/25 05:04:11;;;;;;;7.13;6.50;;;;;;;19.02;83.52;100395.84;5003320;28;20281;-78
2022/06/25 05:06:38;;;;;;;6.77;6.17;;;;;;;19.05;83.10;100398.22;5002711;28;20202;-79
2022/06/25 05:09:04;;;;;;;7.20;6.70;;;;;;;19.09;82.66;100399.63;4999487;28;20744;-79
2022/06/25 05:11:31;;;;;;;6.73;6.20;;;;;;;19.13;82.64;100400.16;5002131;28;20209;-78
2022/06/25 05:13:58;;;;;;;6.40;5.90;;;;;;;19.19;82.56;100405.75;4999161;28;20226;-79
2022/06/25 05:16:26;;;;;;;6.40;5.90;;;;;;;19.24;82.15;100411.53;4998200;28;20212;-79
2022/06/25 05:18:52;;;;;;;6.47;5.87;;;;;;;19.32;82.02;100416.16;4998678;28;20212;-79
2022/06/25 05:21:19;;;;;;;7.80;5.87;;;;;;;19.39;81.87;100407.22;4996827;28;20211;-79
2022/06/25 05:23:46;;;;;;;5.87;5.33;;;;;;;19.50;81.85;100418.81;4995367;28;20230;-79
2022/06/25 05:26:12;;;;;;;5.90;5.30;;;;;;;19.60;81.84;100406.03;4993413;28;20417;-79
2022/06/25 05:28:39;;;;;;;6.07;5.47;;;;;;;19.70;80.90;100412.19;4988992;28;20776;-79
2022/06/25 05:31:07;;;;;;;5.53;5.07;;;;;;;19.79;80.47;100415.75;4997036;28;20289;-79
2022/06/25 05:33:34;;;;;;;5.73;5.23;;;;;;;19.90;80.27;100413.59;5000285;28;20257;-80
2022/06/25 05:36:01;;;;;;;5.17;4.57;;;;;;;20.03;79.88;100413.16;4995078;28;20223;-80
2022/06/25 05:38:28;;;;;;;6.63;4.43;;;;;;;20.17;79.96;100422.47;4998302;28;20221;-80
2022/06/25 05:40:55;;;;;;;4.23;3.77;;;;;;;20.30;79.01;100417.44;4998863;28;20207;-80
2022/06/25 05:43:22;;;;;;;3.77;3.47;;;;;;;20.43;78.38;100418.69;4998745;28;20218;-79
2022/06/25 05:45:52;;;;;;;3.90;3.50;;;;;;;20.58;77.80;100416.19;4994733;28;20205;-80
2022/06/25 05:48:18;;;;;;;4.00;3.60;;;;;;;20.72;76.80;100409.25;5001645;28;20657;-79
2022/06/25 05:50:46;;;;;;;3.60;3.30;;;;;;;20.86;75.96;100421.28;5002428;28;20202;-79
2022/06/25 05:53:12;;;;;;;4.50;3.15;;;;;;;20.96;74.98;100424.69;4999368;28;20211;-79
2022/06/25 05:55:39;;;;;;;3.85;3.10;;;;;;;21.02;74.25;100418.56;5005081;28;20202;-79
2022/06/25 05:58:06;;;;;;;3.67;3.15;;;;;;;21.07;73.61;100427.88;5001501;28;20210;-79
2022/06/25 06:00:32;;;;;;;4.15;3.00;;;;;;;21.15;73.36;100424.28;5004030;28;20199;-79
2022/06/25 06:02:59;;;;;;;4.22;3.00;;;;;;;21.20;72.89;100421.97;4997970;28;20772;-79
2022/06/25 06:05:25;;;;;;;4.20;3.10;;;;;;;21.26;72.55;100428.56;5007466;28;20250;-80
2022/06/25 06:07:53;;;;;;;5.13;2.60;;;;;;;21.30;72.00;100421.78;4993553;28;20201;-80
2022/06/25 06:10:20;;;;;;;3.95;3.15;;;;;;;21.32;71.49;100434.13;4984914;28;20253;-80
2022/06/25 06:12:46;;;;;;;2.95;2.75;;;;;;;21.38;70.97;100433.44;4996177;28;20678;-80
2022/06/25 06:15:13;;;;;;;3.20;2.55;;;;;;;21.50;70.88;100433.09;5000378;28;20231;-80
2022/06/25 06:17:40;;;;;;;2.70;2.50;;;;;;;21.68;70.89;100444.53;4988529;28;20647;-80
2022/06/25 06:20:07;;;;;;;3.30;2.33;;;;;;;21.88;70.39;100451.25;4992134;28;20226;-81
2022/06/25 06:22:34;;;;;;;3.45;2.42;;;;;;;22.07;69.21;100444.59;5000968;28;20211;-79
2022/06/25 06:25:03;;;;;;;4.40;2.58;;;;;;;22.23;67.60;100440.97;4998616;28;20228;-79
2022/06/25 06:27:30;;;;;;;3.03;2.78;;;;;;;22.34;67.01;100448.72;4995876;28;20217;-80
2022/06/25 06:29:56;;;;;;;2.08;1.98;;;;;;;22.47;66.02;100438.13;4996481;28;20240;-80
2022/06/25 06:32:23;;;;;;;2.75;2.53;;;;;;;22.58;65.78;100442.28;4996724;28;20567;-79
2022/06/25 06:34:49;;;;;;;4.22;2.30;;;;;;;22.70;64.91;100449.00;4990828;28;20224;-79
2022/06/25 06:37:16;;;;;;;3.03;2.30;;;;;;;22.81;64.48;100452.19;4991299;28;20271;-79
2022/06/25 06:39:42;;;;;;;3.67;2.38;;;;;;;22.97;64.27;100455.78;4995420;28;20207;-79
2022/06/25 06:42:10;;;;;;;2.30;2.15;;;;;;;23.15;64.37;100456.31;4991347;28;20208;-79
2022/06/25 06:44:37;;;;;;;2.65;2.10;;;;;;;23.31;63.18;100453.44;4989750;28;20231;-79
2022/06/25 06:47:03;;;;;;;2.50;2.08;;;;;;;23.44;62.58;100459.13;4990434;28;20220;-80
2022/06/25 06:49:30;;;;;;;3.65;2.08;;;;;;;23.60;62.83;100452.69;4993423;28;20226;-79
2022/06/25 06:51:56;;;;;;;3.67;2.20;;;;;;;23.77;61.87;100445.22;4992159;28;20207;-79
2022/06/25 06:54:23;;;;;;;2.30;2.10;;;;;;;23.88;61.08;100455.59;4987400;28;21506;-79
2022/06/25 06:56:50;;;;;;;2.67;2.10;;;;;;;23.89;60.13;100452.69;4984330;28;20208;-79
2022/06/25 06:59:17;;;;;;;3.13;1.98;;;;;;;23.87;59.86;100456.63;4988051;28;20225;-79
2022/06/25 07:01:44;;;;;;;2.85;2.03;;;;;;;23.84;59.60;100460.56;4989287;28;20204;-79
2022/06/25 07:04:11;;;;;;;2.38;1.70;;;;;;;23.83;59.98;100450.72;4990254;28;20221;-80
2022/06/25 07:06:37;;;;;;;3.65;2.20;;;;;;;23.88;59.85;100455.59;4986864;28;20199;-79
2022/06/25 07:09:04;;;;;;;2.28;2.00;;;;;;;23.96;60.07;100460.13;4988696;28;20390;-78
2022/06/25 07:11:30;;;;;;;2.22;1.80;;;;;;;24.01;59.19;100457.66;4989637;28;20204;-79
2022/06/25 07:13:58;;;;;;;3.22;2.00;;;;;;;24.11;59.18;100455.50;4988300;28;20223;-79
2022/06/25 07:16:27;;;;;;;2.65;1.75;;;;;;;24.27;59.24;100465.34;4985878;28;20215;-79
2022/06/25 07:18:55;;;;;;;1.75;1.65;;;;;;;24.42;58.40;100455.28;4989079;28;20690;-81
2022/06/25 07:21:22;;;;;;;1.83;1.70;;;;;;;24.57;58.26;100456.06;4990204;28;20206;-80
2022/06/25 07:23:49;;;;;;;2.80;1.88;;;;;;;24.73;57.73;100452.25;4986047;28;20253;-80
2022/06/25 07:26:16;;;;;;;1.70;1.60;;;;;;;24.84;56.28;100459.94;4988670;28;20210;-81
2022/06/25 07:28:42;;;;;;;2.88;1.73;;;;;;;24.92;56.50;100459.78;4987053;28;20266;-80
2022/06/25 07:31:09;;;;;;;1.92;1.52;;;;;;;25.04;56.12;100458.28;4993753;28;20207;-80
2022/06/25 07:33:37;;;;;;;3.03;1.80;;;;;;;25.18;55.71;100454.63;4986549;28;20233;-80
2022/06/25 07:36:04;;;;;;;2.20;1.85;;;;;;;25.32;55.05;100458.31;4985387;28;20608;-80
2022/06/25 07:38:30;;;;;;;2.95;1.63;;;;;;;25.36;54.27;100461.47;4978557;28;20208;-79
2022/06/25 07:40:57;;;;;;;3.47;1.65;;;;;;;25.36;53.55;100466.94;4984034;28;20204;-80
2022/06/25 07:43:25;;;;;;;2.15;1.48;;;;;;;25.39;53.76;100461.94;4985392;28;20212;-81
2022/06/25 07:45:52;;;;;;;1.80;1.70;;;;;;;25.40;53.74;100458.16;4987737;28;20738;-79
2022/06/25 07:48:18;;;;;;;3.03;1.77;;;;;;;25.41;53.71;100454.41;4988842;28;20207;-81
2022/06/25 07:53:29;;;;;;;3.10;1.92;;;;;;;25.43;53.94;100463.22;4949737;28;20207;-80
2022/06/25 07:55:56;;;;;;;1.67;1.58;;;;;;;25.44;53.62;100456.72;4988249;28;20219;-81
2022/06/25 07:58:24;;;;;;;3.25;1.80;;;;;;;25.51;53.85;100454.88;4987091;28;20208;-79
2022/06/25 08:00:51;;;;;;;1.83;1.40;;;;;;;25.61;53.76;100460.00;4982946;28;20298;-80
2022/06/25 08:03:18;;;;;;;1.58;1.40;;;;;;;25.73;52.63;100463.03;4993605;28;20714;-80
2022/06/25 08:05:47;;;;;;;1.70;1.60;;;;;;;25.84;52.51;100462.47;4988446;28;20311;-79
2022/06/25 08:08:14;;;;;;;1.67;1.58;;;;;;;25.95;52.24;100467.38;4994420;28;20211;-78
2022/06/25 08:10:41;;;;;;;2.38;1.70;;;;;;;26.06;52.06;100475.00;4988532;28;20245;-78
2022/06/25 08:13:10;;;;;;;1.58;1.45;;;;;;;26.16;50.87;100475.44;4994567;28;20215;-82
2022/06/25 08:15:37;;;;;;;2.05;1.33;;;;;;;26.21;51.04;100470.22;4989848;28;20298;-80
2022/06/25 08:18:03;;;;;;;2.08;1.40;;;;;;;26.34;51.60;100480.38;4995126;28;20204;-80
2022/06/25 08:20:30;;;;;;;3.88;1.70;;;;;;;26.46;50.37;100480.66;4993824;28;20195;-81
2022/06/25 08:22:58;;;;;;;2.35;1.55;;;;;;;26.55;50.78;100479.41;4986450;28;20208;-79
2022/06/25 08:25:25;;;;;;;1.75;1.40;;;;;;;26.66;49.82;100469.81;4990588;28;20227;-79
2022/06/25 08:27:53;;;;;;;1.80;1.70;;;;;;;26.70;49.46;100484.72;4989114;28;20245;-80
2022/06/25 08:30:20;;;;;;;2.30;1.73;;;;;;;26.69;49.40;100481.16;4993655;28;21002;-79
2022/06/25 08:32:47;;;;;;;3.08;1.85;;;;;;;26.76;49.55;100482.00;4991812;28;20214;-80
2022/06/25 08:35:14;;;;;;;2.05;1.33;;;;;;;26.85;49.87;100480.78;4991636;28;20234;-80
2022/06/25 08:37:44;;;;;;;1.23;1.10;;;;;;;26.88;48.65;100474.88;4987917;28;20559;-79
2022/06/25 08:40:13;;;;;;;1.33;1.00;;;;;;;26.87;47.57;100484.13;4992856;28;20211;-79
2022/06/25 08:42:39;;;;;;;1.67;1.13;;;;;;;26.81;47.28;100484.13;4984377;28;20576;-79
2022/06/25 08:45:07;;;;;;;1.48;1.15;;;;;;;26.75;47.14;100480.31;4992389;28;20227;-80
2022/06/25 08:47:33;;;;;;;1.23;0.93;;;;;;;26.71;46.63;100479.03;4990293;28;20667;-78
2022/06/25 08:50:01;;;;;;;1.10;0.90;;;;;;;26.66;46.03;100476.09;4988268;28;20224;-78
2022/06/25 08:52:28;;;;;;;1.95;1.00;;;;;;;26.68;46.36;100476.75;4986185;28;20241;-79
2022/06/25 08:54:56;;;;;;;1.17;1.08;;;;;;;26.83;46.72;100477.41;4991743;28;20227;-78
2022/06/25 08:57:24;;;;;;;3.25;1.08;;;;;;;27.00;45.68;100488.81;4988963;28;20207;-78
2022/06/25 08:59:51;;;;;;;2.55;1.10;;;;;;;27.13;44.91;100477.91;4988741;28;20203;-78
2022/06/25 09:02:18;;;;;;;1.80;1.02;;;;;;;27.26;44.52;100475.16;4990871;28;20206;-78
2022/06/25 09:04:44;;;;;;;1.60;1.08;;;;;;;27.39;44.26;100477.06;4986795;28;20230;-78
2022/06/25 09:07:13;;;;;;;1.38;1.13;;;;;;;27.56;44.21;100475.59;4999483;28;20219;-78
2022/06/25 09:09:39;;;;;;;1.20;0.82;;;;;;;27.73;43.38;100480.66;4996825;28;20231;-80
2022/06/25 09:12:09;;;;;;;1.75;1.02;;;;;;;27.89;42.75;100481.03;4994516;28;20297;-78
2022/06/25 09:14:38;;;;;;;2.47;1.13;;;;;;;28.04;42.59;100472.56;4982609;28;20233;-79
2022/06/25 09:17:08;;;;;;;2.75;1.00;;;;;;;28.20;41.73;100480.34;4987602;28;20216;-79
2022/06/25 09:19:36;;;;;;;1.05;1.00;;;;;;;28.30;42.05;100474.41;4993254;28;20617;-78
2022/06/25 09:22:05;;;;;;;1.20;0.85;;;;;;;28.36;41.57;100476.28;4996344;28;20773;-79
2022/06/25 09:24:44;;;;;;;1.00;0.90;;;;;;;28.45;41.52;100471.41;4995064;28;20225;-79
2022/06/25 09:27:11;;;;;;;1.13;0.95;;;;;;;28.48;40.72;100469.06;4994933;28;20199;-80
2022/06/25 09:29:42;;;;;;;0.80;0.80;;;;;;;28.49;40.62;100470.72;4988886;28;20199;-79
2022/06/25 09:32:10;;;;;;;1.70;0.88;;;;;;;28.48;40.41;100473.72;4995173;28;20200;-80
2022/06/25 09:34:38;;;;;;;1.13;0.70;;;;;;;28.56;40.23;100470.69;4994346;28;20229;-81
2022/06/25 09:37:22;;;;;;;0.80;0.80;;;;;;;28.67;40.35;100464.50;4990074;28;20218;-82
2022/06/25 09:39:51;;;;;;;2.35;0.80;;;;;;;28.73;39.63;100458.16;4995393;28;20204;-80
2022/06/25 09:42:29;;;;;;;0.88;0.88;;;;;;;28.81;39.69;100468.91;4987394;28;20210;-81
2022/06/25 09:45:09;;;;;;;1.33;0.70;;;;;;;28.87;39.89;100469.91;4990327;28;20743;-80
2022/06/25 09:47:39;;;;;;;1.48;1.02;;;;;;;28.85;40.05;100464.66;4988268;28;20195;-79
2022/06/25 09:50:11;;;;;;;1.65;1.08;;;;;;;28.85;39.91;100461.06;4988898;28;20703;-81
2022/06/25 09:52:39;;;;;;;1.10;0.93;;;;;;;28.91;40.47;100462.94;4983796;28;20214;-80
2022/06/25 09:55:07;;;;;;;1.30;0.90;;;;;;;29.01;40.68;100466.88;4990443;28;20236;-81
2022/06/25 09:57:35;;;;;;;2.50;1.25;;;;;;;29.08;40.83;100461.31;4989946;28;20203;-80
2022/06/25 10:00:02;;;;;;;1.65;0.90;;;;;;;29.16;40.68;100477.53;4985068;28;20299;-79
2022/06/25 10:02:31;;;;;;;1.88;1.00;;;;;;;29.23;40.26;100459.09;4985814;28;20200;-79
2022/06/25 10:05:03;;;;;;;1.92;1.10;;;;;;;29.31;40.19;100464.31;4985706;28;20762;-79
2022/06/25 10:10:19;;;;;;;1.70;1.00;;;;;;;29.50;39.36;100454.25;4978751;28;20252;-80
2022/06/25 10:12:47;;;;;;;2.92;1.20;;;;;;;29.52;39.00;100457.63;4984207;28;20218;-79
2022/06/25 10:15:16;;;;;;;1.20;1.10;;;;;;;29.52;38.96;100460.38;4981537;28;20234;-79
2022/06/25 10:17:45;;;;;;;1.30;0.90;;;;;;;29.49;39.43;100457.22;4983027;28;20249;-79
2022/06/25 10:20:12;;;;;;;3.08;1.05;;;;;;;29.48;39.33;100450.06;4983955;28;20266;-80
2022/06/25 10:22:40;;;;;;;1.58;0.95;;;;;;;29.52;38.54;100452.13;4985568;28;20215;-80
2022/06/25 10:25:10;;;;;;;0.70;0.70;;;;;;;29.57;37.94;100445.94;4981232;28;20256;-80
2022/06/25 10:27:40;;;;;;;2.05;1.30;;;;;;;29.54;38.40;100449.16;4980519;28;20267;-81
2022/06/25 10:30:08;;;;;;;2.90;0.90;;;;;;;29.58;38.87;100439.38;4983912;28;20228;-80
2022/06/25 10:32:44;;;;;;;1.02;0.85;;;;;;;29.71;37.89;100447.50;4984107;28;20325;-80
2022/06/25 10:35:27;;;;;;;0.70;0.70;;;;;;;29.77;37.41;100448.50;4979589;28;20273;-80
2022/06/25 10:38:02;;;;;;;3.58;1.08;;;;;;;29.90;37.21;100440.97;4981158;28;20204;-79
2022/06/25 10:40:30;;;;;;;1.13;0.90;;;;;;;29.97;37.05;100449.97;4978747;28;20233;-80
2022/06/25 10:42:59;;;;;;;1.27;1.08;;;;;;;30.03;36.46;100437.25;4985457;28;20207;-80
2022/06/25 10:45:55;;;;;;;2.70;1.98;;;;;;;30.13;36.09;100439.44;4986716;28;20235;-81
2022/06/25 10:48:23;;;;;;;1.80;0.90;;;;;;;30.18;36.23;100450.59;4985486;28;20227;-80
2022/06/25 10:50:51;;;;;;;1.35;0.80;;;;;;;30.22;36.34;100430.69;4984371;28;20227;-79
2022/06/25 10:53:19;;;;;;;0.90;0.80;;;;;;;30.25;35.77;100430.22;4984083;28;20295;-80
2022/06/25 10:56:00;;;;;;;1.02;0.90;;;;;;;30.35;36.43;100429.66;4982865;28;20222;-79
2022/06/25 10:58:29;;;;;;;2.85;0.98;;;;;;;30.41;35.88;100428.75;4991900;28;20215;-80
2022/06/25 11:00:57;;;;;;;2.00;1.05;;;;;;;30.45;35.89;100434.63;4992172;28;20605;-80
2022/06/25 11:03:46;;;;;;;0.90;0.90;;;;;;;30.45;36.19;100423.63;4995899;28;20202;-81
2022/06/25 11:06:20;;;;;;;1.75;0.90;;;;;;;30.43;35.49;100431.25;4989316;28;20331;-79
2022/06/25 11:08:48;;;;;;;0.88;0.88;;;;;;;30.47;35.87;100426.94;4986916;28;20211;-80
2022/06/25 11:11:23;;;;;;;1.63;1.38;;;;;;;30.53;35.87;100431.53;4983711;28;20235;-79
2022/06/25 11:13:50;;;;;;;1.33;0.80;;;;;;;30.58;35.95;100428.97;4984790;28;20219;-81
2022/06/25 11:16:20;;;;;;;1.23;0.73;;;;;;;30.65;35.31;100436.03;4980843;28;20200;-80
2022/06/25 11:18:49;;;;;;;0.85;0.80;;;;;;;30.71;34.82;100423.25;4980825;28;20236;-80
2022/06/25 11:21:37;;;;;;;1.67;1.48;;;;;;;30.77;35.09;100435.25;4985481;28;20211;-80
2022/06/25 11:24:15;;;;;;;2.05;1.00;;;;;;;30.76;34.88;100428.06;4980177;28;20230;-79
2022/06/25 11:29:28;;;;;;;1.40;1.10;;;;;;;30.87;35.29;100427.25;4985062;28;20214;-80
2022/06/25 11:31:56;;;;;;;2.38;0.90;;;;;;;30.91;34.77;100423.78;4982044;28;20222;-79
2022/06/25 11:34:26;;;;;;;1.38;1.05;;;;;;;30.95;34.53;100427.75;4985809;28;20234;-80
2022/06/25 11:36:57;;;;;;;1.08;0.70;;;;;;;31.01;34.66;100435.03;4990738;28;20206;-80
2022/06/25 11:39:23;;;;;;;1.70;1.10;;;;;;;31.07;34.04;100422.28;4990847;28;20206;-81
2022/06/25 11:41:51;;;;;;;2.10;0.90;;;;;;;31.09;33.48;100425.63;4987338;28;20200;-81